<?xml version="1.0" encoding="UTF-8" standalone="no" ?>
<gpx xmlns="http://www.topografix.com/GPX/1/1" creator="MapSource 6.11.6" version="1.1" xmlns:xsi="http://www.w3.org/2001/XMLSchema-instance" xsi:schemaLocation="http://www.topografix.com/GPX/1/1 http://www.topografix.com/GPX/1/1/gpx.xsd">

  <metadata>
    <link href="http://www.garmin.com">
      <text>Garmin International</text>
    </link>
    <time>2010-02-22T19:20:28Z</time>
    <bounds maxlat="50.526821" maxlon="6.276473" minlat="50.499071" minlon="6.246445"/>
  </metadata>

  <trk>
    <name>Narzissenweg 5</name>
    <extensions>
      <gpxx:TrackExtension xmlns:gpxx="http://www.garmin.com/xmlschemas/GpxExtensions/v3" xmlns:xsi="http://www.w3.org/2001/XMLSchema-instance" xsi:schemaLocation="http://www.garmin.com/xmlschemas/GpxExtensions/v3 http://www.garmin.com/xmlschemas/GpxExtensions/v3/GpxExtensionsv3.xsd">
        <gpxx:DisplayColor>White</gpxx:DisplayColor>
      </gpxx:TrackExtension>
    </extensions>
    <trkseg>
      <trkpt lat="50.526821" lon="6.256789">
        <ele>491.100000</ele>
        <time>2010-02-21T16:08:12Z</time>
      </trkpt>
      <trkpt lat="50.526272" lon="6.256031">
        <ele>478.800000</ele>
        <time>2010-02-21T16:09:40Z</time>
      </trkpt>
      <trkpt lat="50.526245" lon="6.256018">
        <ele>478.600000</ele>
        <time>2010-02-21T16:09:43Z</time>
      </trkpt>
      <trkpt lat="50.524967" lon="6.255570">
        <ele>486.400000</ele>
        <time>2010-02-21T16:12:21Z</time>
      </trkpt>
      <trkpt lat="50.524754" lon="6.255696">
        <ele>487.100000</ele>
        <time>2010-02-21T16:12:48Z</time>
      </trkpt>
      <trkpt lat="50.524367" lon="6.255704">
        <ele>487.900000</ele>
        <time>2010-02-21T16:13:35Z</time>
      </trkpt>
      <trkpt lat="50.524103" lon="6.255564">
        <ele>487.800000</ele>
        <time>2010-02-21T16:14:09Z</time>
      </trkpt>
      <trkpt lat="50.523713" lon="6.255037">
        <ele>489.500000</ele>
        <time>2010-02-21T16:15:11Z</time>
      </trkpt>
      <trkpt lat="50.523250" lon="6.253695">
        <ele>493.600000</ele>
        <time>2010-02-21T16:17:08Z</time>
      </trkpt>
      <trkpt lat="50.522656" lon="6.252545">
        <ele>495.800000</ele>
        <time>2010-02-21T16:19:02Z</time>
      </trkpt>
      <trkpt lat="50.521903" lon="6.251489">
        <ele>499.100000</ele>
        <time>2010-02-21T16:21:03Z</time>
      </trkpt>
      <trkpt lat="50.520822" lon="6.250282">
        <ele>504.100000</ele>
        <time>2010-02-21T16:23:43Z</time>
      </trkpt>
      <trkpt lat="50.520117" lon="6.250112">
        <ele>501.900000</ele>
        <time>2010-02-21T16:25:09Z</time>
      </trkpt>
      <trkpt lat="50.519134" lon="6.249619">
        <ele>500.000000</ele>
        <time>2010-02-21T16:27:14Z</time>
      </trkpt>
      <trkpt lat="50.518403" lon="6.248350">
        <ele>502.200000</ele>
        <time>2010-02-21T16:29:25Z</time>
      </trkpt>
      <trkpt lat="50.518019" lon="6.248076">
        <ele>496.700000</ele>
        <time>2010-02-21T16:30:16Z</time>
      </trkpt>
      <trkpt lat="50.517578" lon="6.247298">
        <ele>497.000000</ele>
        <time>2010-02-21T16:31:36Z</time>
      </trkpt>
      <trkpt lat="50.516236" lon="6.246445">
        <ele>501.700000</ele>
        <time>2010-02-21T16:34:31Z</time>
      </trkpt>
      <trkpt lat="50.514625" lon="6.246750">
        <ele>507.500000</ele>
        <time>2010-02-21T16:37:47Z</time>
      </trkpt>
      <trkpt lat="50.514098" lon="6.247289">
        <ele>508.400000</ele>
        <time>2010-02-21T16:39:02Z</time>
      </trkpt>
      <trkpt lat="50.513689" lon="6.248243">
        <ele>507.500000</ele>
        <time>2010-02-21T16:40:31Z</time>
      </trkpt>
      <trkpt lat="50.513704" lon="6.248877">
        <ele>503.400000</ele>
        <time>2010-02-21T16:41:19Z</time>
      </trkpt>
      <trkpt lat="50.513877" lon="6.250517">
        <ele>498.400000</ele>
        <time>2010-02-21T16:43:27Z</time>
      </trkpt>
      <trkpt lat="50.513987" lon="6.251737">
        <ele>496.600000</ele>
        <time>2010-02-21T16:45:02Z</time>
      </trkpt>
      <trkpt lat="50.513604" lon="6.251506">
        <ele>498.500000</ele>
        <time>2010-02-21T16:45:51Z</time>
      </trkpt>
      <trkpt lat="50.513177" lon="6.250557">
        <ele>503.600000</ele>
        <time>2010-02-21T16:47:20Z</time>
      </trkpt>
      <trkpt lat="50.512618" lon="6.249744">
        <ele>508.300000</ele>
        <time>2010-02-21T16:48:52Z</time>
      </trkpt>
      <trkpt lat="50.511949" lon="6.248810">
        <ele>512.600000</ele>
        <time>2010-02-21T16:50:40Z</time>
      </trkpt>
      <trkpt lat="50.511313" lon="6.248170">
        <ele>513.900000</ele>
        <time>2010-02-21T16:52:11Z</time>
      </trkpt>
      <trkpt lat="50.510702" lon="6.247402">
        <ele>516.600000</ele>
        <time>2010-02-21T16:53:46Z</time>
      </trkpt>
      <trkpt lat="50.510072" lon="6.247015">
        <ele>515.500000</ele>
        <time>2010-02-21T16:55:07Z</time>
      </trkpt>
      <trkpt lat="50.509314" lon="6.246890">
        <ele>511.300000</ele>
        <time>2010-02-21T16:56:39Z</time>
      </trkpt>
      <trkpt lat="50.508514" lon="6.247275">
        <ele>507.700000</ele>
        <time>2010-02-21T16:58:20Z</time>
      </trkpt>
      <trkpt lat="50.508233" lon="6.247968">
        <ele>507.400000</ele>
        <time>2010-02-21T16:59:23Z</time>
      </trkpt>
      <trkpt lat="50.508083" lon="6.248837">
        <ele>507.100000</ele>
        <time>2010-02-21T17:00:32Z</time>
      </trkpt>
      <trkpt lat="50.508667" lon="6.248817">
        <ele>504.700000</ele>
        <time>2010-02-21T17:01:43Z</time>
      </trkpt>
      <trkpt lat="50.508833" lon="6.249752">
        <ele>511.400000</ele>
        <time>2010-02-21T17:02:57Z</time>
      </trkpt>
      <trkpt lat="50.508726" lon="6.250534">
        <ele>516.500000</ele>
        <time>2010-02-21T17:03:59Z</time>
      </trkpt>
      <trkpt lat="50.508386" lon="6.250991">
        <ele>515.800000</ele>
        <time>2010-02-21T17:04:53Z</time>
      </trkpt>
      <trkpt lat="50.507934" lon="6.251285">
        <ele>514.700000</ele>
        <time>2010-02-21T17:05:52Z</time>
      </trkpt>
      <trkpt lat="50.507061" lon="6.251237">
        <ele>511.400000</ele>
        <time>2010-02-21T17:07:37Z</time>
      </trkpt>
      <trkpt lat="50.506355" lon="6.251447">
        <ele>512.300000</ele>
        <time>2010-02-21T17:09:04Z</time>
      </trkpt>
      <trkpt lat="50.505930" lon="6.251712">
        <ele>513.600000</ele>
        <time>2010-02-21T17:09:59Z</time>
      </trkpt>
      <trkpt lat="50.504964" lon="6.251909">
        <ele>515.100000</ele>
        <time>2010-02-21T17:11:56Z</time>
      </trkpt>
      <trkpt lat="50.504347" lon="6.252466">
        <ele>513.900000</ele>
        <time>2010-02-21T17:13:22Z</time>
      </trkpt>
      <trkpt lat="50.503893" lon="6.253409">
        <ele>514.300000</ele>
        <time>2010-02-21T17:14:53Z</time>
      </trkpt>
      <trkpt lat="50.503808" lon="6.255148">
        <ele>520.000000</ele>
        <time>2010-02-21T17:17:07Z</time>
      </trkpt>
      <trkpt lat="50.502666" lon="6.257033">
        <ele>521.500000</ele>
        <time>2010-02-21T17:20:27Z</time>
      </trkpt>
      <trkpt lat="50.502454" lon="6.257186">
        <ele>523.000000</ele>
        <time>2010-02-21T17:20:55Z</time>
      </trkpt>
      <trkpt lat="50.502362" lon="6.257093">
        <ele>522.600000</ele>
        <time>2010-02-21T17:21:08Z</time>
      </trkpt>
      <trkpt lat="50.502195" lon="6.256891">
        <ele>521.500000</ele>
        <time>2010-02-21T17:21:34Z</time>
      </trkpt>
      <trkpt lat="50.502037" lon="6.256280">
        <ele>517.200000</ele>
        <time>2010-02-21T17:22:24Z</time>
      </trkpt>
      <trkpt lat="50.501507" lon="6.255578">
        <ele>516.300000</ele>
        <time>2010-02-21T17:23:48Z</time>
      </trkpt>
      <trkpt lat="50.501239" lon="6.255226">
        <ele>517.000000</ele>
        <time>2010-02-21T17:24:30Z</time>
      </trkpt>
      <trkpt lat="50.500447" lon="6.255230">
        <ele>519.200000</ele>
        <time>2010-02-21T17:26:05Z</time>
      </trkpt>
      <trkpt lat="50.499806" lon="6.255479">
        <ele>520.200000</ele>
        <time>2010-02-21T17:27:25Z</time>
      </trkpt>
      <trkpt lat="50.499431" lon="6.255980">
        <ele>528.200000</ele>
        <time>2010-02-21T17:28:24Z</time>
      </trkpt>
      <trkpt lat="50.499309" lon="6.256523">
        <ele>539.900000</ele>
        <time>2010-02-21T17:29:09Z</time>
      </trkpt>
      <trkpt lat="50.499520" lon="6.258230">
        <ele>548.000000</ele>
        <time>2010-02-21T17:31:22Z</time>
      </trkpt>
      <trkpt lat="50.499513" lon="6.259091">
        <ele>550.500000</ele>
        <time>2010-02-21T17:32:28Z</time>
      </trkpt>
      <trkpt lat="50.499301" lon="6.260400">
        <ele>554.300000</ele>
        <time>2010-02-21T17:34:12Z</time>
      </trkpt>
      <trkpt lat="50.499071" lon="6.261682">
        <ele>555.500000</ele>
        <time>2010-02-21T17:35:54Z</time>
      </trkpt>
      <trkpt lat="50.499180" lon="6.262099">
        <ele>556.800000</ele>
        <time>2010-02-21T17:36:29Z</time>
      </trkpt>
      <trkpt lat="50.499753" lon="6.262404">
        <ele>560.100000</ele>
        <time>2010-02-21T17:37:42Z</time>
      </trkpt>
      <trkpt lat="50.502001" lon="6.265079">
        <ele>568.200000</ele>
        <time>2010-02-21T17:43:22Z</time>
      </trkpt>
      <trkpt lat="50.502699" lon="6.264940">
        <ele>570.700000</ele>
        <time>2010-02-21T17:44:47Z</time>
      </trkpt>
      <trkpt lat="50.503035" lon="6.265090">
        <ele>572.200000</ele>
        <time>2010-02-21T17:45:29Z</time>
      </trkpt>
      <trkpt lat="50.503264" lon="6.266021">
        <ele>573.100000</ele>
        <time>2010-02-21T17:46:46Z</time>
      </trkpt>
      <trkpt lat="50.503583" lon="6.266976">
        <ele>573.800000</ele>
        <time>2010-02-21T17:48:09Z</time>
      </trkpt>
      <trkpt lat="50.504300" lon="6.267653">
        <ele>576.500000</ele>
        <time>2010-02-21T17:49:49Z</time>
      </trkpt>
      <trkpt lat="50.505834" lon="6.270949">
        <ele>579.700000</ele>
        <time>2010-02-21T17:55:03Z</time>
      </trkpt>
      <trkpt lat="50.512006" lon="6.276473">
        <ele>578.800000</ele>
        <time>2010-02-21T18:09:20Z</time>
      </trkpt>
      <trkpt lat="50.514656" lon="6.269058">
        <ele>546.100000</ele>
        <time>2010-02-21T18:20:13Z</time>
      </trkpt>
      <trkpt lat="50.515156" lon="6.268902">
        <ele>543.700000</ele>
        <time>2010-02-21T18:21:14Z</time>
      </trkpt>
      <trkpt lat="50.515544" lon="6.268612">
        <ele>542.000000</ele>
        <time>2010-02-21T18:22:06Z</time>
      </trkpt>
      <trkpt lat="50.515978" lon="6.267529">
        <ele>539.000000</ele>
        <time>2010-02-21T18:23:44Z</time>
      </trkpt>
      <trkpt lat="50.516351" lon="6.267338">
        <ele>538.300000</ele>
        <time>2010-02-21T18:24:31Z</time>
      </trkpt>
      <trkpt lat="50.517641" lon="6.268279">
        <ele>528.800000</ele>
        <time>2010-02-21T18:27:23Z</time>
      </trkpt>
      <trkpt lat="50.517951" lon="6.269996">
        <ele>525.600000</ele>
        <time>2010-02-21T18:29:40Z</time>
      </trkpt>
      <trkpt lat="50.518357" lon="6.271608">
        <ele>520.000000</ele>
        <time>2010-02-21T18:31:53Z</time>
      </trkpt>
      <trkpt lat="50.518297" lon="6.269821">
        <ele>519.900000</ele>
        <time>2010-02-21T18:34:10Z</time>
      </trkpt>
      <trkpt lat="50.518222" lon="6.268542">
        <ele>519.400000</ele>
        <time>2010-02-21T18:35:49Z</time>
      </trkpt>
      <trkpt lat="50.517948" lon="6.266061">
        <ele>511.800000</ele>
        <time>2010-02-21T18:39:02Z</time>
      </trkpt>
      <trkpt lat="50.517761" lon="6.264211">
        <ele>513.400000</ele>
        <time>2010-02-21T18:41:26Z</time>
      </trkpt>
      <trkpt lat="50.518252" lon="6.261390">
        <ele>507.000000</ele>
        <time>2010-02-21T18:45:10Z</time>
      </trkpt>
      <trkpt lat="50.518021" lon="6.259965">
        <ele>513.100000</ele>
        <time>2010-02-21T18:47:03Z</time>
      </trkpt>
      <trkpt lat="50.518109" lon="6.258747">
        <ele>516.200000</ele>
        <time>2010-02-21T18:48:37Z</time>
      </trkpt>
      <trkpt lat="50.518582" lon="6.257845">
        <ele>515.200000</ele>
        <time>2010-02-21T18:50:07Z</time>
      </trkpt>
      <trkpt lat="50.519496" lon="6.257312">
        <ele>513.100000</ele>
        <time>2010-02-21T18:52:04Z</time>
      </trkpt>
      <trkpt lat="50.520888" lon="6.257641">
        <ele>502.000000</ele>
        <time>2010-02-21T18:54:54Z</time>
      </trkpt>
      <trkpt lat="50.522339" lon="6.257387">
        <ele>492.800000</ele>
        <time>2010-02-21T18:57:51Z</time>
      </trkpt>
      <trkpt lat="50.523283" lon="6.256232">
        <ele>483.800000</ele>
        <time>2010-02-21T19:00:15Z</time>
      </trkpt>
      <trkpt lat="50.523371" lon="6.256538">
        <ele>485.600000</ele>
        <time>2010-02-21T19:00:41Z</time>
      </trkpt>
      <trkpt lat="50.523490" lon="6.256615">
        <ele>486.200000</ele>
        <time>2010-02-21T19:00:56Z</time>
      </trkpt>
      <trkpt lat="50.523743" lon="6.256319">
        <ele>484.300000</ele>
        <time>2010-02-21T19:01:34Z</time>
      </trkpt>
      <trkpt lat="50.524039" lon="6.256668">
        <ele>487.700000</ele>
        <time>2010-02-21T19:02:19Z</time>
      </trkpt>
      <trkpt lat="50.524293" lon="6.256780">
        <ele>488.700000</ele>
        <time>2010-02-21T19:02:51Z</time>
      </trkpt>
      <trkpt lat="50.524625" lon="6.256733">
        <ele>487.100000</ele>
        <time>2010-02-21T19:03:31Z</time>
      </trkpt>
      <trkpt lat="50.524903" lon="6.256689">
        <ele>486.100000</ele>
        <time>2010-02-21T19:04:05Z</time>
      </trkpt>
      <trkpt lat="50.525325" lon="6.256664">
        <ele>484.600000</ele>
        <time>2010-02-21T19:04:56Z</time>
      </trkpt>
      <trkpt lat="50.525649" lon="6.256702">
        <ele>483.800000</ele>
        <time>2010-02-21T19:05:35Z</time>
      </trkpt>
      <trkpt lat="50.525956" lon="6.256754">
        <ele>485.300000</ele>
        <time>2010-02-21T19:06:12Z</time>
      </trkpt>
      <trkpt lat="50.526342" lon="6.256351">
        <ele>482.500000</ele>
        <time>2010-02-21T19:07:08Z</time>
      </trkpt>
      <trkpt lat="50.526776" lon="6.256820">
        <ele>491.300000</ele>
        <time>2010-02-21T19:08:11Z</time>
      </trkpt>
    </trkseg>
  </trk>

</gpx>
